createdAt,value
2022-11-06T00:01:17.124Z,23.80
2022-11-06T00:03:45.934Z,22.30
2022-11-06T00:06:35.991Z,22.20
2022-11-06T00:09:08.932Z,18.00
2022-11-06T00:11:39.384Z,19.50
2022-11-06T00:14:08.584Z,17.60
2022-11-06T00:16:39.092Z,15.70
2022-11-06T00:19:08.562Z,15.70
2022-11-06T00:21:37.365Z,15.70
2022-11-06T00:24:08.016Z,17.30
2022-11-06T00:26:37.095Z,18.10
2022-11-06T00:29:06.941Z,17.30
2022-11-06T00:31:37.174Z,17.10
2022-11-06T00:34:09.180Z,16.60
2022-11-06T00:36:37.750Z,17.00
2022-11-06T00:39:06.561Z,16.40
2022-11-06T00:41:35.015Z,14.50
2022-11-06T00:44:04.630Z,15.40
2022-11-06T00:46:32.998Z,15.70
2022-11-06T00:49:04.441Z,17.40
2022-11-06T00:51:39.460Z,17.00
2022-11-06T00:54:11.840Z,17.40
2022-11-06T00:56:40.670Z,17.30
2022-11-06T00:59:12.963Z,15.30
2022-11-06T01:01:45.278Z,13.70
2022-11-06T01:04:20.523Z,15.80
2022-11-06T01:06:53.148Z,16.30
2022-11-06T01:09:25.898Z,15.40
2022-11-06T01:12:14.163Z,15.20
2022-11-06T01:14:44.239Z,17.10
2022-11-06T01:17:13.293Z,16.30
2022-11-06T01:19:42.007Z,16.90
2022-11-06T01:22:10.376Z,16.30
2022-11-06T01:24:38.906Z,17.00
2022-11-06T01:29:55.879Z,18.30
2022-11-06T01:32:24.290Z,15.30
2022-11-06T01:34:52.824Z,16.80
2022-11-06T01:37:21.256Z,18.00
2022-11-06T01:39:50.757Z,22.20
2022-11-06T01:42:21.210Z,19.60
2022-11-06T01:45:25.740Z,15.80
2022-11-06T01:47:54.292Z,15.30
2022-11-06T01:50:22.995Z,15.50
2022-11-06T01:52:51.892Z,14.70
2022-11-06T01:55:30.537Z,13.90
2022-11-06T01:58:01.627Z,14.60
2022-11-06T02:00:31.237Z,14.00
2022-11-06T02:03:00.467Z,15.20
2022-11-06T02:05:29.440Z,13.90
2022-11-06T02:08:00.134Z,14.00
2022-11-06T02:10:29.690Z,14.20
2022-11-06T02:13:20.802Z,13.80
2022-11-06T02:16:21.795Z,14.90
2022-11-06T02:19:10.353Z,14.20
2022-11-06T02:22:28.589Z,14.90
2022-11-06T02:25:15.023Z,14.20
2022-11-06T02:28:11.961Z,15.70
2022-11-06T02:30:46.916Z,15.90
2022-11-06T02:33:49.408Z,17.80
2022-11-06T02:36:27.222Z,13.40
2022-11-06T02:39:01.630Z,15.80
2022-11-06T02:41:35.563Z,15.70
2022-11-06T02:44:10.954Z,14.90
2022-11-06T02:49:18.746Z,14.00
2022-11-06T02:51:53.940Z,13.30
2022-11-06T02:54:26.576Z,15.80
2022-11-06T02:57:00.020Z,14.40
2022-11-06T02:59:52.420Z,13.40
2022-11-06T03:02:30.775Z,15.80
2022-11-06T03:05:16.224Z,14.50
2022-11-06T03:08:04.490Z,13.70
2022-11-06T03:10:46.292Z,15.30
2022-11-06T03:13:27.258Z,13.10
2022-11-06T03:16:33.404Z,13.50
2022-11-06T03:19:45.008Z,14.30
2022-11-06T03:22:38.915Z,14.00
2022-11-06T03:25:30.463Z,12.70
2022-11-06T03:28:26.616Z,13.90
2022-11-06T03:31:02.073Z,16.20
2022-11-06T03:36:25.307Z,15.40
2022-11-06T03:39:02.530Z,14.30
2022-11-06T03:41:44.164Z,23.90
2022-11-06T03:44:17.919Z,65.70
2022-11-06T03:46:54.109Z,59.40
2022-11-06T03:49:31.437Z,52.80
2022-11-06T03:52:07.141Z,35.70
2022-11-06T03:54:52.919Z,23.30
2022-11-06T04:00:03.868Z,21.80
2022-11-06T04:02:37.055Z,20.50
2022-11-06T04:05:22.864Z,17.70
2022-11-06T04:08:15.505Z,18.10
2022-11-06T04:11:07.420Z,18.00
2022-11-06T04:13:57.552Z,15.30
2022-11-06T04:16:32.079Z,16.20
2022-11-06T04:19:01.005Z,15.90
2022-11-06T04:21:57.358Z,18.00
2022-11-06T04:28:00.227Z,16.60
2022-11-06T04:30:35.265Z,14.60
2022-11-06T04:33:20.548Z,13.70
2022-11-06T04:36:16.792Z,16.70
2022-11-06T04:38:53.818Z,15.20
2022-11-06T04:42:04.519Z,18.10
2022-11-06T04:44:47.813Z,15.20
2022-11-06T04:47:22.671Z,16.20
2022-11-06T04:49:56.450Z,15.00
2022-11-06T04:52:29.010Z,16.20
2022-11-06T04:54:59.318Z,14.60
2022-11-06T04:57:27.707Z,14.50
2022-11-06T04:59:56.968Z,14.10
2022-11-06T05:02:25.463Z,14.40
2022-11-06T05:04:53.866Z,12.80
2022-11-06T05:07:22.259Z,14.90
2022-11-06T05:09:50.719Z,15.90
2022-11-06T05:12:19.041Z,13.80
2022-11-06T05:14:47.459Z,14.20
2022-11-06T05:17:15.909Z,12.90
2022-11-06T05:19:44.312Z,14.30
2022-11-06T05:22:31.070Z,14.10
2022-11-06T05:25:01.848Z,12.80
2022-11-06T05:27:30.255Z,14.70
2022-11-06T05:29:58.673Z,12.80
2022-11-06T05:32:27.007Z,12.90
2022-11-06T05:34:55.292Z,18.30
2022-11-06T05:37:23.804Z,26.40
2022-11-06T05:39:52.148Z,60.90
2022-11-06T05:42:21.568Z,49.90
2022-11-06T05:44:49.925Z,49.60
2022-11-06T05:47:18.469Z,44.50
2022-11-06T05:49:47.109Z,27.40
2022-11-06T05:52:17.021Z,28.40
2022-11-06T05:54:45.366Z,35.20
2022-11-06T05:57:13.657Z,35.50
2022-11-06T05:59:42.154Z,18.40
2022-11-06T06:02:11.053Z,44.20
2022-11-06T06:04:39.553Z,20.60
2022-11-06T06:07:08.564Z,19.60
2022-11-06T06:09:36.919Z,16.60
2022-11-06T06:12:05.813Z,21.40
2022-11-06T06:14:34.194Z,44.70
2022-11-06T06:17:02.528Z,28.20
2022-11-06T06:19:31.025Z,33.50
2022-11-06T06:21:59.418Z,31.00
2022-11-06T06:24:27.756Z,23.20
2022-11-06T06:26:56.098Z,25.90
2022-11-06T06:29:24.535Z,20.80
2022-11-06T06:31:52.913Z,28.20
2022-11-06T06:34:21.742Z,25.70
2022-11-06T06:36:52.793Z,18.80
2022-11-06T06:39:21.618Z,15.00
2022-11-06T06:41:50.018Z,16.30
2022-11-06T06:44:18.364Z,14.40
2022-11-06T06:46:46.759Z,14.30
2022-11-06T06:49:15.148Z,17.20
2022-11-06T06:51:43.545Z,16.00
2022-11-06T06:54:12.003Z,13.20
2022-11-06T06:56:40.392Z,13.70
2022-11-06T06:59:08.882Z,13.90
2022-11-06T07:01:37.324Z,14.30
2022-11-06T07:04:05.836Z,15.60
2022-11-06T07:06:34.170Z,15.00
2022-11-06T07:09:02.634Z,14.60
2022-11-06T07:11:31.086Z,14.10
2022-11-06T07:14:00.690Z,14.90
2022-11-06T07:16:29.999Z,14.70
2022-11-06T07:18:59.326Z,15.90
2022-11-06T07:21:27.659Z,14.80
2022-11-06T07:23:56.028Z,16.70
2022-11-06T07:26:24.605Z,15.10
2022-11-06T07:28:52.980Z,16.40
2022-11-06T07:31:21.416Z,15.80
2022-11-06T07:33:49.755Z,13.40
2022-11-06T07:36:18.112Z,15.40
2022-11-06T07:38:46.534Z,15.90
2022-11-06T07:41:15.802Z,14.10
2022-11-06T07:43:44.812Z,16.10
2022-11-06T07:46:13.706Z,15.00
2022-11-06T07:48:42.362Z,15.20
2022-11-06T07:51:11.785Z,15.80
2022-11-06T07:53:41.289Z,16.80
2022-11-06T07:56:09.843Z,14.40
2022-11-06T07:58:38.989Z,14.30
2022-11-06T08:01:18.775Z,12.70
2022-11-06T08:03:47.596Z,13.90
2022-11-06T08:06:15.977Z,14.40
2022-11-06T08:08:44.391Z,12.40
2022-11-06T08:11:13.201Z,17.10
2022-11-06T08:13:41.689Z,17.10
2022-11-06T08:16:14.866Z,15.30
2022-11-06T08:18:43.465Z,15.80
2022-11-06T08:21:11.810Z,16.90
2022-11-06T08:23:40.254Z,14.40
2022-11-06T08:26:08.726Z,13.50
2022-11-06T08:28:37.591Z,14.50
2022-11-06T08:31:08.248Z,14.40
2022-11-06T08:33:38.811Z,13.90
2022-11-06T08:36:09.328Z,12.60
2022-11-06T08:38:37.937Z,11.10
2022-11-06T08:41:16.076Z,12.00
2022-11-06T08:43:44.449Z,11.60
2022-11-06T08:46:12.944Z,16.80
2022-11-06T08:48:41.385Z,22.90
2022-11-06T08:51:09.682Z,14.40
2022-11-06T08:53:38.062Z,17.40
2022-11-06T08:56:07.256Z,15.40
2022-11-06T08:58:35.670Z,12.60
2022-11-06T09:01:04.081Z,13.10
2022-11-06T09:03:32.701Z,13.10
2022-11-06T09:06:01.328Z,13.10
2022-11-06T09:08:29.684Z,10.40
2022-11-06T09:10:59.195Z,11.50
2022-11-06T09:13:28.585Z,9.30
2022-11-06T09:15:56.949Z,10.90
2022-11-06T09:18:25.558Z,9.60
2022-11-06T09:21:01.920Z,10.30
2022-11-06T09:23:31.646Z,8.50
2022-11-06T09:25:59.968Z,9.60
2022-11-06T09:28:28.424Z,8.40
2022-11-06T09:30:56.853Z,6.80
2022-11-06T09:33:25.284Z,7.60
2022-11-06T09:35:53.601Z,7.00
2022-11-06T09:38:21.951Z,5.90
2022-11-06T09:40:55.147Z,7.00
2022-11-06T09:46:37.638Z,6.60
2022-11-06T09:49:20.597Z,6.40
2022-11-06T09:51:59.721Z,6.90
2022-11-06T09:54:41.022Z,5.60
2022-11-06T09:57:28.697Z,4.90
2022-11-06T09:59:57.779Z,4.70
2022-11-06T10:02:55.840Z,4.70
2022-11-06T10:05:34.011Z,3.80
2022-11-06T10:08:29.355Z,4.00
2022-11-06T10:11:35.892Z,3.90
2022-11-06T10:14:35.347Z,4.10
2022-11-06T10:17:16.556Z,4.40
2022-11-06T10:20:12.806Z,3.90
2022-11-06T10:22:58.419Z,3.90
2022-11-06T10:25:53.048Z,3.90
2022-11-06T10:28:57.076Z,3.70
2022-11-06T10:31:54.633Z,4.30
2022-11-06T10:34:31.531Z,3.30
2022-11-06T10:37:20.532Z,3.10
2022-11-06T10:39:49.959Z,3.40
2022-11-06T10:42:35.159Z,3.30
2022-11-06T10:45:14.638Z,2.80
2022-11-06T10:51:45.944Z,3.90
2022-11-06T10:54:25.653Z,3.30
2022-11-06T10:57:28.265Z,2.60
2022-11-06T10:59:56.830Z,2.40
2022-11-06T11:02:38.248Z,3.40
2022-11-06T11:05:22.395Z,2.50
2022-11-06T11:07:51.893Z,3.60
2022-11-06T11:10:23.318Z,3.00
2022-11-06T11:12:54.827Z,3.30
2022-11-06T11:15:26.116Z,4.10
2022-11-06T11:18:08.459Z,3.30
2022-11-06T11:20:42.726Z,3.40
2022-11-06T11:23:26.056Z,2.50
2022-11-06T11:26:24.266Z,3.10
2022-11-06T11:28:59.190Z,3.00
2022-11-06T11:34:22.836Z,3.30
2022-11-06T11:37:02.982Z,2.70
2022-11-06T11:39:36.184Z,2.50
2022-11-06T11:42:28.638Z,2.90
2022-11-06T11:45:08.561Z,3.30
2022-11-06T11:47:42.674Z,3.10
2022-11-06T11:50:36.672Z,3.50
2022-11-06T11:53:19.847Z,2.80
2022-11-06T11:55:52.949Z,2.90
2022-11-06T11:58:28.446Z,2.70
2022-11-06T12:01:02.022Z,3.10
2022-11-06T12:03:39.624Z,3.10
2022-11-06T12:06:14.414Z,3.10
2022-11-06T12:08:50.262Z,3.40
2022-11-06T12:11:25.904Z,4.70
2022-11-06T12:14:22.337Z,3.90
2022-11-06T12:16:57.348Z,4.20
2022-11-06T12:19:31.081Z,4.00
2022-11-06T12:22:06.825Z,3.30
2022-11-06T12:24:53.561Z,3.70
2022-11-06T12:27:34.890Z,3.60
2022-11-06T12:30:13.980Z,3.30
2022-11-06T12:33:04.353Z,3.50
2022-11-06T12:35:48.408Z,3.70
2022-11-06T12:38:36.488Z,3.10
2022-11-06T12:41:13.145Z,2.70
2022-11-06T12:43:50.214Z,2.50
2022-11-06T12:46:56.104Z,2.30
2022-11-06T12:49:50.713Z,3.20
2022-11-06T12:52:37.233Z,2.50
2022-11-06T12:55:29.182Z,2.40
2022-11-06T12:58:25.209Z,2.40
2022-11-06T13:01:45.022Z,2.80
2022-11-06T13:04:36.021Z,2.20
2022-11-06T13:07:27.868Z,3.10
2022-11-06T13:10:19.640Z,3.00
2022-11-06T13:13:04.677Z,3.00
2022-11-06T13:15:56.393Z,4.80
2022-11-06T13:18:53.050Z,13.70
2022-11-06T13:21:51.098Z,8.00
2022-11-06T13:24:40.087Z,24.20
2022-11-06T13:27:58.711Z,5.50
2022-11-06T13:30:29.466Z,4.20
2022-11-06T13:33:05.413Z,6.10
2022-11-06T13:35:38.973Z,8.30
2022-11-06T13:38:12.534Z,2.70
2022-11-06T13:40:44.231Z,11.70
2022-11-06T13:43:47.346Z,7.20
2022-11-06T13:46:52.891Z,13.90
2022-11-06T13:49:55.906Z,6.50
2022-11-06T13:52:53.460Z,11.10
2022-11-06T13:55:28.568Z,5.30
2022-11-06T13:58:18.103Z,22.50
2022-11-06T14:01:17.599Z,7.20
2022-11-06T14:04:21.899Z,6.60
2022-11-06T14:06:56.807Z,8.00
2022-11-06T14:12:00.129Z,3.20
2022-11-06T14:14:32.272Z,3.10
2022-11-06T14:17:16.580Z,3.40
2022-11-06T14:19:50.071Z,3.50
2022-11-06T14:22:33.959Z,3.20
2022-11-06T14:25:32.616Z,3.10
2022-11-06T14:28:00.872Z,3.00
2022-11-06T14:30:50.254Z,3.00
2022-11-06T14:33:44.671Z,3.40
2022-11-06T14:36:37.384Z,3.10
2022-11-06T14:39:13.337Z,3.60
2022-11-06T14:41:44.773Z,3.70
2022-11-06T14:44:26.883Z,4.10
2022-11-06T14:47:02.970Z,3.90
2022-11-06T14:49:40.731Z,3.60
2022-11-06T14:52:16.153Z,3.90
2022-11-06T14:55:05.504Z,4.00
2022-11-06T14:57:48.522Z,7.60
2022-11-06T15:00:44.839Z,6.30
2022-11-06T15:03:45.452Z,8.70
2022-11-06T15:06:16.949Z,9.40
2022-11-06T15:08:45.241Z,11.80
2022-11-06T15:11:47.703Z,11.30
2022-11-06T15:14:16.334Z,12.60
2022-11-06T15:16:51.252Z,13.00
2022-11-06T15:19:27.355Z,19.10
2022-11-06T15:22:35.856Z,30.70
2022-11-06T15:25:16.161Z,91.30
2022-11-06T15:27:58.214Z,93.70
2022-11-06T15:30:29.324Z,35.00
2022-11-06T15:33:03.200Z,53.50
2022-11-06T15:35:35.809Z,23.20
2022-11-06T15:38:21.836Z,16.00
2022-11-06T15:40:53.705Z,15.00
2022-11-06T15:43:35.735Z,14.30
2022-11-06T15:46:11.080Z,15.30
2022-11-06T15:48:39.460Z,12.60
2022-11-06T15:51:42.673Z,14.50
2022-11-06T15:54:14.640Z,12.00
2022-11-06T15:56:43.772Z,13.20
2022-11-06T15:59:17.033Z,13.60
2022-11-06T16:01:49.612Z,14.90
2022-11-06T16:04:23.019Z,13.80
2022-11-06T16:07:05.913Z,15.40
2022-11-06T16:14:44.334Z,15.10
2022-11-06T16:17:26.111Z,14.10
2022-11-06T16:19:59.964Z,13.70
2022-11-06T16:22:34.452Z,16.60
2022-11-06T16:25:07.590Z,18.60
2022-11-06T16:27:41.909Z,19.50
2022-11-06T16:30:25.315Z,19.30
2022-11-06T16:32:54.491Z,19.30
2022-11-06T16:35:38.131Z,16.70
2022-11-06T16:38:39.242Z,17.80
2022-11-06T16:41:05.931Z,14.60
2022-11-06T16:43:34.738Z,16.40
2022-11-06T16:46:08.087Z,15.70
2022-11-06T16:48:45.566Z,15.40
2022-11-06T16:51:32.756Z,15.40
2022-11-06T16:54:02.308Z,13.60
2022-11-06T16:56:34.112Z,16.00
2022-11-06T16:59:13.938Z,15.30
2022-11-06T17:01:47.020Z,15.10
2022-11-06T17:04:29.843Z,16.60
2022-11-06T17:06:58.674Z,17.60
2022-11-06T17:09:35.663Z,20.60
2022-11-06T17:12:10.762Z,23.50
2022-11-06T17:14:45.360Z,25.50
2022-11-06T17:17:25.980Z,22.90
2022-11-06T17:19:54.317Z,17.10
2022-11-06T17:22:24.950Z,17.90
2022-11-06T17:24:53.267Z,16.60
2022-11-06T17:27:21.653Z,14.70
2022-11-06T17:29:51.850Z,16.10
2022-11-06T17:32:20.144Z,16.00
2022-11-06T17:34:48.564Z,17.00
2022-11-06T17:37:21.892Z,17.80
2022-11-06T17:39:50.381Z,17.30
2022-11-06T17:42:18.674Z,15.90
2022-11-06T17:44:47.050Z,16.10
2022-11-06T17:47:15.413Z,14.70
2022-11-06T17:49:43.993Z,16.20
2022-11-06T17:52:12.572Z,18.30
2022-11-06T17:54:40.941Z,16.60
2022-11-06T17:57:09.293Z,18.70
2022-11-06T17:59:37.666Z,17.70
2022-11-06T18:02:07.454Z,17.10
2022-11-06T18:04:37.998Z,18.40
2022-11-06T18:07:06.414Z,18.30
2022-11-06T18:09:35.735Z,19.70
2022-11-06T18:12:09.555Z,20.60
2022-11-06T18:14:37.920Z,21.10
2022-11-06T18:17:06.546Z,21.30
2022-11-06T18:19:35.005Z,21.80
2022-11-06T18:22:06.672Z,20.10
2022-11-06T18:24:38.539Z,20.70
2022-11-06T18:27:06.890Z,21.90
2022-11-06T18:29:35.235Z,18.70
2022-11-06T18:32:04.017Z,20.50
2022-11-06T18:34:32.393Z,17.60
2022-11-06T18:37:00.955Z,20.90
2022-11-06T18:39:29.695Z,21.30
2022-11-06T18:41:59.238Z,19.70
2022-11-06T18:44:27.643Z,20.60
2022-11-06T18:46:55.999Z,21.40
2022-11-06T18:49:24.277Z,23.30
2022-11-06T18:51:52.647Z,22.60
2022-11-06T18:54:21.056Z,22.10
2022-11-06T18:56:49.347Z,22.30
2022-11-06T18:59:20.561Z,24.20
2022-11-06T19:01:49.044Z,22.40
2022-11-06T19:04:17.860Z,24.80
2022-11-06T19:06:46.537Z,26.30
2022-11-06T19:09:14.985Z,24.50
2022-11-06T19:11:43.514Z,24.80
2022-11-06T19:14:11.871Z,25.00
2022-11-06T19:16:40.420Z,22.30
2022-11-06T19:19:10.844Z,22.00
2022-11-06T19:21:42.839Z,21.30
2022-11-06T19:24:12.773Z,24.00
2022-11-06T19:26:41.487Z,23.40
2022-11-06T19:29:09.990Z,24.50
2022-11-06T19:31:39.353Z,23.30
2022-11-06T19:34:08.739Z,21.20
2022-11-06T19:36:37.154Z,21.20
2022-11-06T19:39:07.295Z,20.70
2022-11-06T19:41:35.645Z,20.50
2022-11-06T19:44:04.188Z,20.80
2022-11-06T19:46:35.848Z,18.80
2022-11-06T19:49:06.715Z,18.80
2022-11-06T19:51:37.647Z,22.50
2022-11-06T19:54:06.172Z,20.90
2022-11-06T19:56:34.635Z,22.20
2022-11-06T19:59:03.152Z,21.10
2022-11-06T20:01:34.491Z,20.30
2022-11-06T20:04:02.997Z,21.90
2022-11-06T20:06:31.384Z,20.90
2022-11-06T20:08:59.983Z,20.30
2022-11-06T20:11:28.325Z,21.20
2022-11-06T20:13:56.775Z,17.50
2022-11-06T20:16:26.462Z,19.80
2022-11-06T20:18:59.473Z,19.10
2022-11-06T20:21:28.649Z,21.50
2022-11-06T20:23:57.365Z,21.10
2022-11-06T20:26:25.826Z,20.20
2022-11-06T20:28:54.290Z,22.50
2022-11-06T20:31:23.436Z,21.80
2022-11-06T20:33:52.753Z,19.00
2022-11-06T20:36:27.956Z,18.20
2022-11-06T20:38:59.919Z,18.60
2022-11-06T20:41:29.523Z,22.20
2022-11-06T20:43:58.587Z,22.30
2022-11-06T20:46:26.949Z,21.60
2022-11-06T20:48:55.294Z,20.90
2022-11-06T20:51:27.175Z,20.50
2022-11-06T20:53:55.675Z,21.60
2022-11-06T20:56:25.684Z,20.80
2022-11-06T20:58:56.216Z,20.50
2022-11-06T21:01:27.941Z,21.20
2022-11-06T21:03:57.565Z,21.10
2022-11-06T21:06:27.337Z,21.50
2022-11-06T21:08:56.458Z,21.30
2022-11-06T21:11:27.649Z,19.70
2022-11-06T21:13:56.162Z,19.30
2022-11-06T21:16:32.449Z,21.00
2022-11-06T21:19:02.449Z,21.40
2022-11-06T21:21:37.106Z,21.50
2022-11-06T21:24:06.359Z,21.00
2022-11-06T21:26:38.109Z,21.40
2022-11-06T21:29:13.233Z,23.60
2022-11-06T21:31:48.526Z,25.20
2022-11-06T21:34:19.176Z,27.20
2022-11-06T21:36:48.076Z,24.00
2022-11-06T21:39:19.339Z,25.10
2022-11-06T21:41:48.066Z,25.20
2022-11-06T21:44:18.463Z,24.40
2022-11-06T21:46:47.676Z,25.60
2022-11-06T21:49:16.053Z,31.70
2022-11-06T21:51:44.401Z,31.10
2022-11-06T21:54:31.766Z,28.00
2022-11-06T21:57:00.180Z,28.90
2022-11-06T21:59:29.939Z,28.60
2022-11-06T22:01:58.664Z,29.20
2022-11-06T22:04:27.497Z,27.00
2022-11-06T22:06:55.832Z,31.50
2022-11-06T22:09:25.963Z,28.00
2022-11-06T22:11:54.483Z,29.20
2022-11-06T22:14:22.938Z,29.70
2022-11-06T22:16:52.469Z,32.70
2022-11-06T22:19:20.883Z,33.30
2022-11-06T22:21:49.262Z,31.00
2022-11-06T22:24:17.632Z,31.00
2022-11-06T22:26:45.913Z,31.40
2022-11-06T22:29:14.558Z,32.20
2022-11-06T22:31:43.268Z,33.50
2022-11-06T22:34:13.215Z,32.50
2022-11-06T22:36:41.968Z,31.70
2022-11-06T22:39:12.184Z,34.20
2022-11-06T22:41:40.771Z,36.00
2022-11-06T22:44:09.962Z,32.10
2022-11-06T22:46:39.070Z,33.50
2022-11-06T22:49:07.989Z,32.10
2022-11-06T22:51:36.701Z,32.60
2022-11-06T22:54:05.774Z,35.60
2022-11-06T22:56:34.410Z,34.60
2022-11-06T22:59:08.601Z,32.70
2022-11-06T23:01:42.440Z,31.30
2022-11-06T23:04:15.222Z,32.80
2022-11-06T23:06:45.718Z,30.60
2022-11-06T23:09:14.379Z,33.40
2022-11-06T23:11:46.298Z,32.90
2022-11-06T23:14:14.863Z,34.30
2022-11-06T23:16:57.979Z,33.00
2022-11-06T23:19:28.902Z,31.30
2022-11-06T23:22:16.369Z,33.40
2022-11-06T23:24:45.356Z,33.00
2022-11-06T23:27:13.957Z,29.60
2022-11-06T23:29:42.330Z,28.70
2022-11-06T23:32:10.769Z,29.30
2022-11-06T23:34:39.133Z,30.30
2022-11-06T23:37:07.761Z,29.80
2022-11-06T23:39:36.141Z,29.90
2022-11-06T23:42:04.842Z,31.30
2022-11-06T23:44:51.794Z,31.60
2022-11-06T23:47:20.086Z,35.20
2022-11-06T23:49:48.405Z,31.90
2022-11-06T23:52:16.744Z,36.30
2022-11-06T23:54:45.364Z,35.60
2022-11-06T23:57:13.814Z,34.20
2022-11-06T23:59:42.815Z,35.90
